sensor_id;sensor_type;location;lat;lon;timestamp;temperature;humidity
69800;DHT22;67217;51.008;4.644;2023-02-18T00:01:09;11.70;90.30
69800;DHT22;67217;51.008;4.644;2023-02-18T00:03:37;11.70;90.40
69800;DHT22;67217;51.008;4.644;2023-02-18T00:06:12;11.70;90.40
69800;DHT22;67217;51.008;4.644;2023-02-18T00:08:41;11.70;90.30
69800;DHT22;67217;51.008;4.644;2023-02-18T00:11:10;11.70;90.20
69800;DHT22;67217;51.008;4.644;2023-02-18T00:13:38;11.70;90.30
69800;DHT22;67217;51.008;4.644;2023-02-18T00:16:09;11.70;90.30
69800;DHT22;67217;51.008;4.644;2023-02-18T00:18:38;11.70;90.10
69800;DHT22;67217;51.008;4.644;2023-02-18T00:21:07;11.70;90.20
69800;DHT22;67217;51.008;4.644;2023-02-18T00:23:35;11.70;90.20
69800;DHT22;67217;51.008;4.644;2023-02-18T00:26:09;11.70;90.10
69800;DHT22;67217;51.008;4.644;2023-02-18T00:28:37;11.60;90.40
69800;DHT22;67217;51.008;4.644;2023-02-18T00:31:14;11.60;90.30
69800;DHT22;67217;51.008;4.644;2023-02-18T00:33:42;11.80;90.00
69800;DHT22;67217;51.008;4.644;2023-02-18T00:36:13;11.70;90.30
69800;DHT22;67217;51.008;4.644;2023-02-18T00:38:48;11.60;90.60
69800;DHT22;67217;51.008;4.644;2023-02-18T00:41:16;11.50;90.80
69800;DHT22;67217;51.008;4.644;2023-02-18T00:43:45;11.60;90.60
69800;DHT22;67217;51.008;4.644;2023-02-18T00:46:13;11.70;90.20
69800;DHT22;67217;51.008;4.644;2023-02-18T00:48:41;11.70;90.10
69800;DHT22;67217;51.008;4.644;2023-02-18T00:51:09;11.70;90.00
69800;DHT22;67217;51.008;4.644;2023-02-18T00:53:38;11.70;90.20
69800;DHT22;67217;51.008;4.644;2023-02-18T00:56:06;11.70;90.40
69800;DHT22;67217;51.008;4.644;2023-02-18T00:58:34;11.50;90.40
69800;DHT22;67217;51.008;4.644;2023-02-18T01:01:04;11.60;90.50
69800;DHT22;67217;51.008;4.644;2023-02-18T01:03:33;11.50;90.50
69800;DHT22;67217;51.008;4.644;2023-02-18T01:06:00;11.50;90.70
69800;DHT22;67217;51.008;4.644;2023-02-18T01:08:29;11.60;90.70
69800;DHT22;67217;51.008;4.644;2023-02-18T01:10:57;11.50;90.60
69800;DHT22;67217;51.008;4.644;2023-02-18T01:13:26;11.40;90.80
69800;DHT22;67217;51.008;4.644;2023-02-18T01:15:54;11.50;90.70
69800;DHT22;67217;51.008;4.644;2023-02-18T01:18:23;11.50;90.80
69800;DHT22;67217;51.008;4.644;2023-02-18T01:20:51;11.40;91.00
69800;DHT22;67217;51.008;4.644;2023-02-18T01:23:19;11.50;90.60
69800;DHT22;67217;51.008;4.644;2023-02-18T01:25:47;11.60;90.60
69800;DHT22;67217;51.008;4.644;2023-02-18T01:28:15;11.50;90.80
69800;DHT22;67217;51.008;4.644;2023-02-18T01:30:44;11.60;90.50
69800;DHT22;67217;51.008;4.644;2023-02-18T01:33:12;11.70;90.30
69800;DHT22;67217;51.008;4.644;2023-02-18T01:35:40;11.70;90.10
69800;DHT22;67217;51.008;4.644;2023-02-18T01:38:09;11.70;90.10
69800;DHT22;67217;51.008;4.644;2023-02-18T01:40:44;11.60;90.50
69800;DHT22;67217;51.008;4.644;2023-02-18T01:43:09;11.60;90.60
69800;DHT22;67217;51.008;4.644;2023-02-18T01:45:42;11.70;90.20
69800;DHT22;67217;51.008;4.644;2023-02-18T01:48:35;11.70;90.00
69800;DHT22;67217;51.008;4.644;2023-02-18T01:51:13;11.70;90.00
69800;DHT22;67217;51.008;4.644;2023-02-18T01:53:48;11.70;89.90
69800;DHT22;67217;51.008;4.644;2023-02-18T01:56:24;11.70;90.10
69800;DHT22;67217;51.008;4.644;2023-02-18T01:58:54;11.70;90.10
69800;DHT22;67217;51.008;4.644;2023-02-18T02:01:23;11.70;90.60
69800;DHT22;67217;51.008;4.644;2023-02-18T02:03:52;11.60;90.50
69800;DHT22;67217;51.008;4.644;2023-02-18T02:06:22;11.60;90.60
69800;DHT22;67217;51.008;4.644;2023-02-18T02:08:52;11.50;90.80
69800;DHT22;67217;51.008;4.644;2023-02-18T02:16:37;11.30;91.80
69800;DHT22;67217;51.008;4.644;2023-02-18T02:30:57;11.20;92.10
69800;DHT22;67217;51.008;4.644;2023-02-18T02:36:20;11.20;92.20
69800;DHT22;67217;51.008;4.644;2023-02-18T02:39:03;11.40;91.70
69800;DHT22;67217;51.008;4.644;2023-02-18T02:41:57;11.40;91.60
69800;DHT22;67217;51.008;4.644;2023-02-18T02:44:21;11.30;91.70
69800;DHT22;67217;51.008;4.644;2023-02-18T02:46:51;11.20;92.00
69800;DHT22;67217;51.008;4.644;2023-02-18T02:49:39;11.20;92.00
69800;DHT22;67217;51.008;4.644;2023-02-18T02:54:36;11.20;92.10
69800;DHT22;67217;51.008;4.644;2023-02-18T02:59:48;11.30;92.20
69800;DHT22;67217;51.008;4.644;2023-02-18T03:10:52;11.30;91.90
69800;DHT22;67217;51.008;4.644;2023-02-18T03:24:43;11.30;92.10
69800;DHT22;67217;51.008;4.644;2023-02-18T03:27:19;11.30;91.80
69800;DHT22;67217;51.008;4.644;2023-02-18T03:29:45;11.10;92.00
69800;DHT22;67217;51.008;4.644;2023-02-18T03:32:16;11.20;92.20
69800;DHT22;67217;51.008;4.644;2023-02-18T03:34:47;11.10;92.40
69800;DHT22;67217;51.008;4.644;2023-02-18T03:37:15;11.20;92.30
69800;DHT22;67217;51.008;4.644;2023-02-18T03:39:47;11.20;92.10
69800;DHT22;67217;51.008;4.644;2023-02-18T03:42:16;11.20;92.20
69800;DHT22;67217;51.008;4.644;2023-02-18T03:44:44;11.20;92.40
69800;DHT22;67217;51.008;4.644;2023-02-18T03:47:12;11.00;92.50
69800;DHT22;67217;51.008;4.644;2023-02-18T03:49:40;11.00;92.70
69800;DHT22;67217;51.008;4.644;2023-02-18T03:52:09;11.10;92.50
69800;DHT22;67217;51.008;4.644;2023-02-18T03:54:37;11.10;92.40
69800;DHT22;67217;51.008;4.644;2023-02-18T03:57:05;11.00;92.50
69800;DHT22;67217;51.008;4.644;2023-02-18T03:59:33;11.10;92.60
69800;DHT22;67217;51.008;4.644;2023-02-18T04:02:01;11.10;92.40
69800;DHT22;67217;51.008;4.644;2023-02-18T04:04:29;11.10;92.50
69800;DHT22;67217;51.008;4.644;2023-02-18T04:06:57;11.10;92.30
69800;DHT22;67217;51.008;4.644;2023-02-18T04:09:25;11.20;92.30
69800;DHT22;67217;51.008;4.644;2023-02-18T04:11:53;11.10;92.30
69800;DHT22;67217;51.008;4.644;2023-02-18T04:14:21;11.20;92.30
69800;DHT22;67217;51.008;4.644;2023-02-18T04:16:48;11.10;92.30
69800;DHT22;67217;51.008;4.644;2023-02-18T04:19:16;11.10;92.30
69800;DHT22;67217;51.008;4.644;2023-02-18T04:21:52;11.00;92.50
69800;DHT22;67217;51.008;4.644;2023-02-18T04:24:15;11.00;92.70
69800;DHT22;67217;51.008;4.644;2023-02-18T04:26:42;10.90;92.90
69800;DHT22;67217;51.008;4.644;2023-02-18T04:29:10;10.90;92.80
69800;DHT22;67217;51.008;4.644;2023-02-18T04:31:38;11.00;92.80
69800;DHT22;67217;51.008;4.644;2023-02-18T04:34:06;11.00;92.50
69800;DHT22;67217;51.008;4.644;2023-02-18T04:36:34;11.00;92.50
69800;DHT22;67217;51.008;4.644;2023-02-18T04:39:02;11.00;92.40
69800;DHT22;67217;51.008;4.644;2023-02-18T04:41:30;11.00;92.40
69800;DHT22;67217;51.008;4.644;2023-02-18T04:43:57;11.00;92.40
69800;DHT22;67217;51.008;4.644;2023-02-18T04:46:26;11.00;92.40
69800;DHT22;67217;51.008;4.644;2023-02-18T04:48:53;11.20;92.10
69800;DHT22;67217;51.008;4.644;2023-02-18T04:51:21;11.10;92.00
69800;DHT22;67217;51.008;4.644;2023-02-18T04:53:49;11.00;92.30
69800;DHT22;67217;51.008;4.644;2023-02-18T04:56:17;11.00;92.20
69800;DHT22;67217;51.008;4.644;2023-02-18T04:58:46;11.00;92.20
69800;DHT22;67217;51.008;4.644;2023-02-18T05:01:14;11.10;92.20
69800;DHT22;67217;51.008;4.644;2023-02-18T05:03:42;11.10;92.10
69800;DHT22;67217;51.008;4.644;2023-02-18T05:06:11;11.10;92.10
69800;DHT22;67217;51.008;4.644;2023-02-18T05:08:39;11.20;91.70
69800;DHT22;67217;51.008;4.644;2023-02-18T05:11:08;11.20;91.70
69800;DHT22;67217;51.008;4.644;2023-02-18T05:13:35;11.10;91.90
69800;DHT22;67217;51.008;4.644;2023-02-18T05:16:04;11.10;91.80
69800;DHT22;67217;51.008;4.644;2023-02-18T05:18:31;11.00;92.10
69800;DHT22;67217;51.008;4.644;2023-02-18T05:20:59;11.00;92.30
69800;DHT22;67217;51.008;4.644;2023-02-18T05:23:27;11.00;92.40
69800;DHT22;67217;51.008;4.644;2023-02-18T05:25:55;11.00;92.10
69800;DHT22;67217;51.008;4.644;2023-02-18T05:28:23;11.00;92.10
69800;DHT22;67217;51.008;4.644;2023-02-18T05:30:51;11.00;92.10
69800;DHT22;67217;51.008;4.644;2023-02-18T05:33:19;11.00;92.60
69800;DHT22;67217;51.008;4.644;2023-02-18T05:35:47;10.90;92.40
69800;DHT22;67217;51.008;4.644;2023-02-18T05:38:15;11.00;92.30
69800;DHT22;67217;51.008;4.644;2023-02-18T05:40:44;10.90;92.30
69800;DHT22;67217;51.008;4.644;2023-02-18T05:43:12;11.00;92.30
69800;DHT22;67217;51.008;4.644;2023-02-18T05:45:40;10.90;92.50
69800;DHT22;67217;51.008;4.644;2023-02-18T05:48:08;10.90;92.20
69800;DHT22;67217;51.008;4.644;2023-02-18T05:50:36;11.00;91.90
69800;DHT22;67217;51.008;4.644;2023-02-18T05:53:05;11.00;91.50
69800;DHT22;67217;51.008;4.644;2023-02-18T05:55:33;10.90;91.60
69800;DHT22;67217;51.008;4.644;2023-02-18T05:58:03;10.90;91.40
69800;DHT22;67217;51.008;4.644;2023-02-18T06:00:31;10.90;91.10
69800;DHT22;67217;51.008;4.644;2023-02-18T06:02:59;10.90;91.10
69800;DHT22;67217;51.008;4.644;2023-02-18T06:05:26;11.00;90.80
69800;DHT22;67217;51.008;4.644;2023-02-18T06:07:54;10.90;90.60
69800;DHT22;67217;51.008;4.644;2023-02-18T06:10:22;10.90;90.00
69800;DHT22;67217;51.008;4.644;2023-02-18T06:12:50;10.90;89.40
69800;DHT22;67217;51.008;4.644;2023-02-18T06:15:18;10.90;89.00
69800;DHT22;67217;51.008;4.644;2023-02-18T06:17:46;10.90;88.00
69800;DHT22;67217;51.008;4.644;2023-02-18T06:20:13;10.80;88.60
69800;DHT22;67217;51.008;4.644;2023-02-18T06:22:41;10.80;87.70
69800;DHT22;67217;51.008;4.644;2023-02-18T06:25:09;10.80;88.60
69800;DHT22;67217;51.008;4.644;2023-02-18T06:27:37;10.90;86.90
69800;DHT22;67217;51.008;4.644;2023-02-18T06:30:06;10.80;87.70
69800;DHT22;67217;51.008;4.644;2023-02-18T06:32:34;10.80;86.80
69800;DHT22;67217;51.008;4.644;2023-02-18T06:35:01;10.90;86.00
69800;DHT22;67217;51.008;4.644;2023-02-18T06:37:29;10.90;84.50
69800;DHT22;67217;51.008;4.644;2023-02-18T06:39:57;10.90;84.10
69800;DHT22;67217;51.008;4.644;2023-02-18T06:42:24;10.90;83.60
69800;DHT22;67217;51.008;4.644;2023-02-18T06:44:52;11.00;81.70
69800;DHT22;67217;51.008;4.644;2023-02-18T06:47:20;11.00;81.90
69800;DHT22;67217;51.008;4.644;2023-02-18T06:49:48;10.80;82.40
69800;DHT22;67217;51.008;4.644;2023-02-18T06:52:15;10.90;82.30
69800;DHT22;67217;51.008;4.644;2023-02-18T06:54:43;10.90;82.40
69800;DHT22;67217;51.008;4.644;2023-02-18T06:57:11;10.90;81.90
69800;DHT22;67217;51.008;4.644;2023-02-18T06:59:39;11.00;82.10
69800;DHT22;67217;51.008;4.644;2023-02-18T07:02:12;10.90;82.70
69800;DHT22;67217;51.008;4.644;2023-02-18T07:04:38;10.90;81.40
69800;DHT22;67217;51.008;4.644;2023-02-18T07:07:05;10.90;81.60
69800;DHT22;67217;51.008;4.644;2023-02-18T07:09:33;10.80;82.20
69800;DHT22;67217;51.008;4.644;2023-02-18T07:12:01;10.90;82.70
69800;DHT22;67217;51.008;4.644;2023-02-18T07:14:28;10.80;81.70
69800;DHT22;67217;51.008;4.644;2023-02-18T07:16:56;10.90;81.60
69800;DHT22;67217;51.008;4.644;2023-02-18T07:19:24;11.00;80.70
69800;DHT22;67217;51.008;4.644;2023-02-18T07:21:52;10.90;81.60
69800;DHT22;67217;51.008;4.644;2023-02-18T07:24:21;10.90;80.80
69800;DHT22;67217;51.008;4.644;2023-02-18T07:26:49;10.90;81.60
69800;DHT22;67217;51.008;4.644;2023-02-18T07:29:16;11.00;80.90
69800;DHT22;67217;51.008;4.644;2023-02-18T07:31:44;10.90;81.10
69800;DHT22;67217;51.008;4.644;2023-02-18T07:34:12;10.90;80.50
69800;DHT22;67217;51.008;4.644;2023-02-18T07:36:39;10.90;80.60
69800;DHT22;67217;51.008;4.644;2023-02-18T07:39:08;11.00;80.90
69800;DHT22;67217;51.008;4.644;2023-02-18T07:41:35;11.00;80.90
69800;DHT22;67217;51.008;4.644;2023-02-18T07:44:04;11.00;80.10
69800;DHT22;67217;51.008;4.644;2023-02-18T07:46:31;11.00;79.80
69800;DHT22;67217;51.008;4.644;2023-02-18T07:48:59;11.10;79.50
69800;DHT22;67217;51.008;4.644;2023-02-18T07:51:27;11.20;79.50
69800;DHT22;67217;51.008;4.644;2023-02-18T07:53:55;11.20;78.90
69800;DHT22;67217;51.008;4.644;2023-02-18T07:56:22;11.20;79.00
69800;DHT22;67217;51.008;4.644;2023-02-18T07:58:50;11.20;79.30
69800;DHT22;67217;51.008;4.644;2023-02-18T08:01:18;11.20;78.70
69800;DHT22;67217;51.008;4.644;2023-02-18T08:03:46;11.20;79.40
69800;DHT22;67217;51.008;4.644;2023-02-18T08:06:30;11.20;79.10
69800;DHT22;67217;51.008;4.644;2023-02-18T08:08:58;11.20;79.20
69800;DHT22;67217;51.008;4.644;2023-02-18T08:11:26;11.20;79.40
69800;DHT22;67217;51.008;4.644;2023-02-18T08:13:54;11.30;78.20
69800;DHT22;67217;51.008;4.644;2023-02-18T08:16:22;11.30;77.80
69800;DHT22;67217;51.008;4.644;2023-02-18T08:18:51;11.30;78.30
69800;DHT22;67217;51.008;4.644;2023-02-18T08:21:21;11.30;78.20
69800;DHT22;67217;51.008;4.644;2023-02-18T08:23:48;11.30;79.30
69800;DHT22;67217;51.008;4.644;2023-02-18T08:26:17;11.20;79.10
69800;DHT22;67217;51.008;4.644;2023-02-18T08:28:46;11.30;78.90
69800;DHT22;67217;51.008;4.644;2023-02-18T08:31:21;11.50;77.90
69800;DHT22;67217;51.008;4.644;2023-02-18T08:33:44;11.50;77.80
69800;DHT22;67217;51.008;4.644;2023-02-18T08:36:12;11.60;77.40
69800;DHT22;67217;51.008;4.644;2023-02-18T08:38:40;11.60;77.70
69800;DHT22;67217;51.008;4.644;2023-02-18T08:41:09;11.60;77.20
69800;DHT22;67217;51.008;4.644;2023-02-18T08:43:37;11.70;77.10
69800;DHT22;67217;51.008;4.644;2023-02-18T08:46:05;11.70;76.60
69800;DHT22;67217;51.008;4.644;2023-02-18T08:48:33;11.60;77.80
69800;DHT22;67217;51.008;4.644;2023-02-18T08:51:15;11.70;76.60
69800;DHT22;67217;51.008;4.644;2023-02-18T08:53:44;11.70;77.10
69800;DHT22;67217;51.008;4.644;2023-02-18T08:56:13;11.70;77.70
69800;DHT22;67217;51.008;4.644;2023-02-18T08:58:42;11.80;76.20
69800;DHT22;67217;51.008;4.644;2023-02-18T09:01:11;11.70;77.30
69800;DHT22;67217;51.008;4.644;2023-02-18T09:03:40;11.60;77.70
69800;DHT22;67217;51.008;4.644;2023-02-18T09:06:08;11.60;76.60
69800;DHT22;67217;51.008;4.644;2023-02-18T09:08:36;11.60;77.10
69800;DHT22;67217;51.008;4.644;2023-02-18T09:11:04;11.50;77.90
69800;DHT22;67217;51.008;4.644;2023-02-18T09:13:32;11.70;76.20
69800;DHT22;67217;51.008;4.644;2023-02-18T09:16:04;11.80;76.40
69800;DHT22;67217;51.008;4.644;2023-02-18T09:18:31;11.80;75.80
69800;DHT22;67217;51.008;4.644;2023-02-18T09:21:01;11.80;75.80
69800;DHT22;67217;51.008;4.644;2023-02-18T09:23:31;11.80;75.70
69800;DHT22;67217;51.008;4.644;2023-02-18T09:25:59;11.80;75.60
69800;DHT22;67217;51.008;4.644;2023-02-18T09:28:28;11.80;76.10
69800;DHT22;67217;51.008;4.644;2023-02-18T09:30:56;11.80;76.60
69800;DHT22;67217;51.008;4.644;2023-02-18T09:33:26;11.90;76.50
69800;DHT22;67217;51.008;4.644;2023-02-18T09:35:53;11.80;76.50
69800;DHT22;67217;51.008;4.644;2023-02-18T09:38:21;11.80;76.70
69800;DHT22;67217;51.008;4.644;2023-02-18T09:40:50;11.90;76.80
69800;DHT22;67217;51.008;4.644;2023-02-18T09:43:34;12.00;76.10
69800;DHT22;67217;51.008;4.644;2023-02-18T09:46:04;12.10;75.60
69800;DHT22;67217;51.008;4.644;2023-02-18T09:48:35;12.20;75.20
69800;DHT22;67217;51.008;4.644;2023-02-18T09:51:22;12.10;75.50
69800;DHT22;67217;51.008;4.644;2023-02-18T09:53:50;12.00;76.10
69800;DHT22;67217;51.008;4.644;2023-02-18T09:56:25;11.90;76.20
69800;DHT22;67217;51.008;4.644;2023-02-18T09:58:51;12.00;76.60
69800;DHT22;67217;51.008;4.644;2023-02-18T10:01:34;12.00;76.30
69800;DHT22;67217;51.008;4.644;2023-02-18T10:04:21;12.00;77.10
69800;DHT22;67217;51.008;4.644;2023-02-18T10:06:51;12.00;76.60
69800;DHT22;67217;51.008;4.644;2023-02-18T10:09:36;12.00;77.30
69800;DHT22;67217;51.008;4.644;2023-02-18T10:12:16;12.00;76.90
69800;DHT22;67217;51.008;4.644;2023-02-18T10:14:47;12.00;77.10
69800;DHT22;67217;51.008;4.644;2023-02-18T10:17:16;12.00;77.60
69800;DHT22;67217;51.008;4.644;2023-02-18T10:19:46;11.90;78.60
69800;DHT22;67217;51.008;4.644;2023-02-18T10:22:16;12.00;78.40
69800;DHT22;67217;51.008;4.644;2023-02-18T10:25:02;12.00;77.70
69800;DHT22;67217;51.008;4.644;2023-02-18T10:27:33;12.00;77.90
69800;DHT22;67217;51.008;4.644;2023-02-18T10:30:56;12.00;78.10
69800;DHT22;67217;51.008;4.644;2023-02-18T10:33:09;12.10;77.60
69800;DHT22;67217;51.008;4.644;2023-02-18T10:35:49;12.20;77.20
69800;DHT22;67217;51.008;4.644;2023-02-18T10:38:52;12.10;78.10
69800;DHT22;67217;51.008;4.644;2023-02-18T10:52:00;12.20;77.80
69800;DHT22;67217;51.008;4.644;2023-02-18T10:54:57;12.30;78.40
69800;DHT22;67217;51.008;4.644;2023-02-18T10:57:20;12.30;77.70
69800;DHT22;67217;51.008;4.644;2023-02-18T11:00:16;12.40;78.10
69800;DHT22;67217;51.008;4.644;2023-02-18T11:02:42;12.30;77.90
69800;DHT22;67217;51.008;4.644;2023-02-18T11:05:23;12.30;78.20
69800;DHT22;67217;51.008;4.644;2023-02-18T11:07:54;12.20;78.70
69800;DHT22;67217;51.008;4.644;2023-02-18T11:10:31;12.20;79.40
69800;DHT22;67217;51.008;4.644;2023-02-18T11:13:07;12.30;79.30
69800;DHT22;67217;51.008;4.644;2023-02-18T11:15:35;12.40;78.70
69800;DHT22;67217;51.008;4.644;2023-02-18T11:18:36;12.30;78.50
69800;DHT22;67217;51.008;4.644;2023-02-18T11:20:44;12.30;78.80
69800;DHT22;67217;51.008;4.644;2023-02-18T11:23:19;12.40;79.00
69800;DHT22;67217;51.008;4.644;2023-02-18T11:25:52;12.40;78.40
69800;DHT22;67217;51.008;4.644;2023-02-18T11:28:26;12.40;78.40
69800;DHT22;67217;51.008;4.644;2023-02-18T11:30:57;12.30;78.50
69800;DHT22;67217;51.008;4.644;2023-02-18T11:33:38;12.40;78.90
69800;DHT22;67217;51.008;4.644;2023-02-18T11:36:15;12.40;78.90
69800;DHT22;67217;51.008;4.644;2023-02-18T11:38:48;12.40;78.90
69800;DHT22;67217;51.008;4.644;2023-02-18T11:41:16;12.40;78.80
69800;DHT22;67217;51.008;4.644;2023-02-18T11:43:47;12.40;79.00
69800;DHT22;67217;51.008;4.644;2023-02-18T11:46:20;12.40;78.90
69800;DHT22;67217;51.008;4.644;2023-02-18T11:48:49;12.40;78.80
69800;DHT22;67217;51.008;4.644;2023-02-18T11:51:25;12.50;78.50
69800;DHT22;67217;51.008;4.644;2023-02-18T11:56:32;12.60;77.90
69800;DHT22;67217;51.008;4.644;2023-02-18T11:59:02;12.50;78.20
69800;DHT22;67217;51.008;4.644;2023-02-18T12:01:48;12.60;78.40
69800;DHT22;67217;51.008;4.644;2023-02-18T12:04:18;12.50;78.20
69800;DHT22;67217;51.008;4.644;2023-02-18T12:09:39;12.60;77.90
69800;DHT22;67217;51.008;4.644;2023-02-18T12:12:25;12.60;77.90
69800;DHT22;67217;51.008;4.644;2023-02-18T12:14:54;12.60;78.00
69800;DHT22;67217;51.008;4.644;2023-02-18T12:23:32;12.60;78.10
69800;DHT22;67217;51.008;4.644;2023-02-18T12:26:04;12.60;78.40
69800;DHT22;67217;51.008;4.644;2023-02-18T12:28:45;12.70;77.80
69800;DHT22;67217;51.008;4.644;2023-02-18T12:39:31;12.70;77.60
69800;DHT22;67217;51.008;4.644;2023-02-18T12:44:59;12.70;77.50
69800;DHT22;67217;51.008;4.644;2023-02-18T12:47:41;12.80;77.10
69800;DHT22;67217;51.008;4.644;2023-02-18T12:53:03;12.80;77.50
69800;DHT22;67217;51.008;4.644;2023-02-18T12:58:31;12.80;77.70
69800;DHT22;67217;51.008;4.644;2023-02-18T13:04:08;12.80;78.10
69800;DHT22;67217;51.008;4.644;2023-02-18T13:06:37;12.70;78.90
69800;DHT22;67217;51.008;4.644;2023-02-18T13:11:57;12.60;81.10
69800;DHT22;67217;51.008;4.644;2023-02-18T13:14:26;12.50;81.50
69800;DHT22;67217;51.008;4.644;2023-02-18T13:16:56;12.60;81.70
69800;DHT22;67217;51.008;4.644;2023-02-18T13:19:28;12.70;81.70
69800;DHT22;67217;51.008;4.644;2023-02-18T13:22:01;12.80;81.00
69800;DHT22;67217;51.008;4.644;2023-02-18T13:24:34;12.70;81.00
69800;DHT22;67217;51.008;4.644;2023-02-18T13:35:21;12.40;82.20
69800;DHT22;67217;51.008;4.644;2023-02-18T13:40:37;12.50;82.10
69800;DHT22;67217;51.008;4.644;2023-02-18T13:43:29;12.60;82.00
69800;DHT22;67217;51.008;4.644;2023-02-18T13:48:45;12.40;82.50
69800;DHT22;67217;51.008;4.644;2023-02-18T13:51:28;12.40;83.00
69800;DHT22;67217;51.008;4.644;2023-02-18T13:56:57;12.30;83.50
69800;DHT22;67217;51.008;4.644;2023-02-18T13:59:32;12.30;83.50
69800;DHT22;67217;51.008;4.644;2023-02-18T14:05:22;12.40;83.20
69800;DHT22;67217;51.008;4.644;2023-02-18T14:08:03;12.30;83.60
69800;DHT22;67217;51.008;4.644;2023-02-18T14:10:26;12.30;83.20
69800;DHT22;67217;51.008;4.644;2023-02-18T14:18:22;12.30;84.00
69800;DHT22;67217;51.008;4.644;2023-02-18T14:20:51;12.30;84.20
69800;DHT22;67217;51.008;4.644;2023-02-18T14:25:51;12.20;84.30
69800;DHT22;67217;51.008;4.644;2023-02-18T14:33:49;12.30;84.40
69800;DHT22;67217;51.008;4.644;2023-02-18T14:38:49;12.20;85.00
69800;DHT22;67217;51.008;4.644;2023-02-18T14:49:43;12.40;83.90
69800;DHT22;67217;51.008;4.644;2023-02-18T14:52:37;12.40;83.90
69800;DHT22;67217;51.008;4.644;2023-02-18T14:54:43;12.30;84.70
69800;DHT22;67217;51.008;4.644;2023-02-18T14:57:17;12.40;84.30
69800;DHT22;67217;51.008;4.644;2023-02-18T14:59:47;12.40;83.80
69800;DHT22;67217;51.008;4.644;2023-02-18T15:02:20;12.30;84.40
69800;DHT22;67217;51.008;4.644;2023-02-18T15:04:49;12.30;84.70
69800;DHT22;67217;51.008;4.644;2023-02-18T15:07:22;12.30;84.60
69800;DHT22;67217;51.008;4.644;2023-02-18T15:09:53;12.30;84.40
69800;DHT22;67217;51.008;4.644;2023-02-18T15:12:23;12.40;84.10
69800;DHT22;67217;51.008;4.644;2023-02-18T15:14:53;12.30;84.40
69800;DHT22;67217;51.008;4.644;2023-02-18T15:17:24;12.40;84.30
69800;DHT22;67217;51.008;4.644;2023-02-18T15:19:58;12.30;84.40
69800;DHT22;67217;51.008;4.644;2023-02-18T15:22:30;12.40;84.50
69800;DHT22;67217;51.008;4.644;2023-02-18T15:24:59;12.30;84.50
69800;DHT22;67217;51.008;4.644;2023-02-18T15:27:30;12.20;85.20
69800;DHT22;67217;51.008;4.644;2023-02-18T15:30:09;12.20;85.60
69800;DHT22;67217;51.008;4.644;2023-02-18T15:32:32;12.20;85.00
69800;DHT22;67217;51.008;4.644;2023-02-18T15:35:02;12.10;85.80
69800;DHT22;67217;51.008;4.644;2023-02-18T15:37:30;12.20;85.00
69800;DHT22;67217;51.008;4.644;2023-02-18T15:39:58;12.20;84.40
69800;DHT22;67217;51.008;4.644;2023-02-18T15:42:35;12.10;84.90
69800;DHT22;67217;51.008;4.644;2023-02-18T15:45:23;12.20;84.80
69800;DHT22;67217;51.008;4.644;2023-02-18T15:47:54;12.30;84.20
69800;DHT22;67217;51.008;4.644;2023-02-18T15:50:28;12.20;84.50
69800;DHT22;67217;51.008;4.644;2023-02-18T15:52:54;12.30;84.40
69800;DHT22;67217;51.008;4.644;2023-02-18T15:55:31;12.30;84.00
69800;DHT22;67217;51.008;4.644;2023-02-18T15:58:02;12.10;84.30
69800;DHT22;67217;51.008;4.644;2023-02-18T16:00:36;12.10;84.90
69800;DHT22;67217;51.008;4.644;2023-02-18T16:03:23;12.10;84.90
69800;DHT22;67217;51.008;4.644;2023-02-18T16:08:38;12.10;85.00
69800;DHT22;67217;51.008;4.644;2023-02-18T16:11:08;12.10;84.80
69800;DHT22;67217;51.008;4.644;2023-02-18T16:13:45;12.10;84.60
69800;DHT22;67217;51.008;4.644;2023-02-18T16:16:27;12.10;84.20
69800;DHT22;67217;51.008;4.644;2023-02-18T16:18:54;12.20;84.10
69800;DHT22;67217;51.008;4.644;2023-02-18T16:24:01;12.10;85.00
69800;DHT22;67217;51.008;4.644;2023-02-18T16:26:41;12.00;85.20
69800;DHT22;67217;51.008;4.644;2023-02-18T16:29:22;12.00;84.90
69800;DHT22;67217;51.008;4.644;2023-02-18T16:31:44;12.00;85.00
69800;DHT22;67217;51.008;4.644;2023-02-18T16:34:12;12.10;84.10
69800;DHT22;67217;51.008;4.644;2023-02-18T16:36:40;12.20;83.90
69800;DHT22;67217;51.008;4.644;2023-02-18T16:39:09;12.10;83.80
69800;DHT22;67217;51.008;4.644;2023-02-18T16:41:37;12.20;83.80
69800;DHT22;67217;51.008;4.644;2023-02-18T16:44:10;12.20;83.80
69800;DHT22;67217;51.008;4.644;2023-02-18T16:46:38;12.10;83.90
69800;DHT22;67217;51.008;4.644;2023-02-18T16:49:07;12.10;83.80
69800;DHT22;67217;51.008;4.644;2023-02-18T16:51:35;12.10;83.80
69800;DHT22;67217;51.008;4.644;2023-02-18T16:54:03;12.00;84.30
69800;DHT22;67217;51.008;4.644;2023-02-18T16:56:32;12.00;84.30
69800;DHT22;67217;51.008;4.644;2023-02-18T16:59:01;11.90;84.40
69800;DHT22;67217;51.008;4.644;2023-02-18T17:01:33;11.80;85.10
69800;DHT22;67217;51.008;4.644;2023-02-18T17:04:09;11.90;84.90
69800;DHT22;67217;51.008;4.644;2023-02-18T17:06:36;12.00;84.50
69800;DHT22;67217;51.008;4.644;2023-02-18T17:09:17;12.00;84.00
69800;DHT22;67217;51.008;4.644;2023-02-18T17:11:50;12.00;84.60
69800;DHT22;67217;51.008;4.644;2023-02-18T17:14:19;11.90;85.00
69800;DHT22;67217;51.008;4.644;2023-02-18T17:16:49;11.90;84.70
69800;DHT22;67217;51.008;4.644;2023-02-18T17:19:17;12.00;84.70
69800;DHT22;67217;51.008;4.644;2023-02-18T17:21:45;12.00;84.50
69800;DHT22;67217;51.008;4.644;2023-02-18T17:24:14;12.10;83.80
69800;DHT22;67217;51.008;4.644;2023-02-18T17:26:42;12.10;83.90
69800;DHT22;67217;51.008;4.644;2023-02-18T17:29:10;12.10;84.00
69800;DHT22;67217;51.008;4.644;2023-02-18T17:31:40;12.10;84.00
69800;DHT22;67217;51.008;4.644;2023-02-18T17:34:17;12.00;84.50
69800;DHT22;67217;51.008;4.644;2023-02-18T17:36:40;12.00;84.50
69800;DHT22;67217;51.008;4.644;2023-02-18T17:39:11;12.00;84.30
69800;DHT22;67217;51.008;4.644;2023-02-18T17:41:41;12.10;83.90
69800;DHT22;67217;51.008;4.644;2023-02-18T17:44:17;12.10;84.20
69800;DHT22;67217;51.008;4.644;2023-02-18T17:46:45;12.00;83.90
69800;DHT22;67217;51.008;4.644;2023-02-18T17:49:14;12.10;83.90
69800;DHT22;67217;51.008;4.644;2023-02-18T17:51:42;11.90;84.80
69800;DHT22;67217;51.008;4.644;2023-02-18T17:54:15;11.90;85.20
69800;DHT22;67217;51.008;4.644;2023-02-18T17:56:42;11.90;85.00
69800;DHT22;67217;51.008;4.644;2023-02-18T17:59:10;12.00;84.70
69800;DHT22;67217;51.008;4.644;2023-02-18T18:01:38;12.00;84.60
69800;DHT22;67217;51.008;4.644;2023-02-18T18:04:12;12.00;84.40
69800;DHT22;67217;51.008;4.644;2023-02-18T18:06:40;12.00;84.50
69800;DHT22;67217;51.008;4.644;2023-02-18T18:09:08;12.00;84.40
69800;DHT22;67217;51.008;4.644;2023-02-18T18:11:36;12.00;84.50